createdAt,value
2023-01-12T00:02:21.193Z,60.13
2023-01-12T00:04:49.168Z,64.93
2023-01-12T00:07:18.478Z,63.97
2023-01-12T00:09:46.506Z,62.45
2023-01-12T00:12:14.902Z,55.15
2023-01-12T00:14:42.855Z,57.17
2023-01-12T00:17:12.323Z,59.53
2023-01-12T00:19:40.434Z,63.92
2023-01-12T00:22:11.927Z,59.75
2023-01-12T00:24:45.526Z,62.30
2023-01-12T00:27:16.637Z,60.35
2023-01-12T00:29:44.727Z,53.47
2023-01-12T00:32:18.059Z,64.25
2023-01-12T00:37:14.616Z,57.35
2023-01-12T00:39:53.136Z,64.45
2023-01-12T00:42:43.493Z,65.95
2023-01-12T00:45:23.128Z,57.40
2023-01-12T00:47:52.311Z,51.67
2023-01-12T00:50:20.013Z,61.88
2023-01-12T00:52:47.725Z,63.33
2023-01-12T00:55:15.861Z,59.42
2023-01-12T00:57:43.945Z,65.32
2023-01-12T01:00:12.055Z,56.88
2023-01-12T01:02:40.354Z,58.60
2023-01-12T01:05:08.990Z,59.80
2023-01-12T01:07:38.348Z,58.92
2023-01-12T01:10:06.307Z,64.25
2023-01-12T01:12:34.261Z,58.13
2023-01-12T01:15:01.989Z,62.90
2023-01-12T01:17:30.143Z,62.53
2023-01-12T01:19:58.003Z,62.17
2023-01-12T01:22:26.230Z,64.82
2023-01-12T01:24:53.937Z,62.85
2023-01-12T01:27:22.114Z,55.15
2023-01-12T01:29:49.903Z,55.83
2023-01-12T01:32:18.109Z,56.67
2023-01-12T01:34:47.431Z,56.38
2023-01-12T01:37:15.228Z,59.00
2023-01-12T01:39:42.951Z,55.90
2023-01-12T01:42:28.343Z,59.63
2023-01-12T01:44:58.564Z,56.40
2023-01-12T01:47:32.178Z,60.80
2023-01-12T01:50:01.465Z,58.95
2023-01-12T01:52:37.167Z,56.15
2023-01-12T01:55:10.622Z,55.72
2023-01-12T01:57:48.799Z,63.47
2023-01-12T02:00:17.089Z,56.53
2023-01-12T02:02:46.994Z,56.75
2023-01-12T02:05:20.376Z,65.25
2023-01-12T02:07:49.873Z,65.28
2023-01-12T02:10:18.136Z,62.08
2023-01-12T02:13:04.920Z,57.05
2023-01-12T02:16:18.137Z,65.03
2023-01-12T02:18:56.464Z,52.80
2023-01-12T02:21:46.925Z,60.47
2023-01-12T02:24:59.731Z,62.92
2023-01-12T02:27:41.237Z,54.45
2023-01-12T02:30:09.196Z,62.28
2023-01-12T02:33:04.291Z,60.42
2023-01-12T02:35:53.040Z,58.85
2023-01-12T02:38:46.108Z,59.38
2023-01-12T02:43:47.933Z,52.08
2023-01-12T02:46:29.509Z,59.88
2023-01-12T02:49:05.522Z,61.72
2023-01-12T02:51:41.552Z,58.42
2023-01-12T02:54:15.169Z,58.60
2023-01-12T02:56:49.715Z,55.60
2023-01-12T02:59:29.377Z,54.97
2023-01-12T03:02:01.973Z,56.70
2023-01-12T03:04:32.420Z,43.67
2023-01-12T03:07:00.395Z,56.80
2023-01-12T03:09:41.696Z,53.33
2023-01-12T03:12:14.625Z,54.17
2023-01-12T03:14:46.660Z,55.40
2023-01-12T03:17:28.452Z,56.88
2023-01-12T03:19:57.927Z,55.25
2023-01-12T03:22:26.482Z,57.00
2023-01-12T03:24:58.229Z,50.58
2023-01-12T03:27:30.877Z,49.20
2023-01-12T03:30:01.594Z,57.55
2023-01-12T03:32:29.969Z,53.20
2023-01-12T03:34:58.693Z,51.10
2023-01-12T03:37:28.654Z,55.25
2023-01-12T03:40:03.905Z,55.70
2023-01-12T03:42:50.088Z,50.38
2023-01-12T03:45:42.630Z,49.83
2023-01-12T03:48:17.706Z,50.03
2023-01-12T03:51:01.645Z,50.53
2023-01-12T03:53:31.416Z,53.08
2023-01-12T03:56:05.868Z,52.55
2023-01-12T03:58:35.429Z,59.78
2023-01-12T04:01:04.228Z,52.67
2023-01-12T04:03:32.925Z,53.55
2023-01-12T04:06:00.981Z,56.83
2023-01-12T04:08:29.923Z,55.85
2023-01-12T04:10:57.721Z,55.70
2023-01-12T04:13:26.193Z,57.85
2023-01-12T04:15:53.964Z,50.17
2023-01-12T04:18:21.930Z,59.00
2023-01-12T04:20:50.136Z,56.03
2023-01-12T04:23:18.376Z,53.72
2023-01-12T04:25:46.185Z,59.22
2023-01-12T04:28:17.150Z,56.53
2023-01-12T04:30:44.495Z,53.45
2023-01-12T04:33:12.797Z,55.00
2023-01-12T04:35:40.791Z,57.67
2023-01-12T04:38:09.941Z,55.75
2023-01-12T04:40:37.889Z,55.95
2023-01-12T04:43:08.589Z,63.47
2023-01-12T04:45:39.571Z,55.28
2023-01-12T04:48:11.263Z,60.20
2023-01-12T04:50:39.919Z,61.75
2023-01-12T04:53:10.788Z,53.03
2023-01-12T04:55:41.133Z,59.20
2023-01-12T04:58:10.459Z,55.00
2023-01-12T05:00:38.296Z,66.57
2023-01-12T05:03:06.662Z,52.90
2023-01-12T05:05:34.394Z,56.20
2023-01-12T05:08:22.905Z,55.25
2023-01-12T05:10:55.545Z,56.65
2023-01-12T05:15:51.785Z,55.13
2023-01-12T05:18:20.308Z,53.83
2023-01-12T05:20:48.059Z,59.58
2023-01-12T05:23:16.673Z,56.35
2023-01-12T05:25:44.363Z,54.45
2023-01-12T05:28:12.587Z,55.05
2023-01-12T05:30:40.336Z,52.03
2023-01-12T05:33:16.094Z,58.67
2023-01-12T05:35:43.832Z,57.15
2023-01-12T05:38:12.397Z,52.65
2023-01-12T05:40:40.798Z,55.83
2023-01-12T05:43:31.338Z,53.58
2023-01-12T05:46:04.016Z,52.90
2023-01-12T05:48:32.956Z,54.13
2023-01-12T05:51:04.127Z,54.90
2023-01-12T05:53:32.794Z,56.78
2023-01-12T05:56:10.203Z,55.70
2023-01-12T05:58:38.740Z,55.17
2023-01-12T06:01:08.482Z,54.13
2023-01-12T06:03:38.109Z,62.25
2023-01-12T06:06:06.887Z,55.65
2023-01-12T06:08:35.305Z,55.40
2023-01-12T06:11:04.002Z,56.45
2023-01-12T06:13:50.755Z,59.67
2023-01-12T06:16:18.501Z,63.22
2023-01-12T06:18:46.438Z,59.53
2023-01-12T06:21:14.236Z,62.17
2023-01-12T06:23:42.592Z,62.25
2023-01-12T06:26:10.801Z,73.65
2023-01-12T06:28:40.923Z,68.60
2023-01-12T06:31:10.684Z,63.03
2023-01-12T06:33:39.291Z,67.95
2023-01-12T06:36:07.940Z,66.30
2023-01-12T06:38:39.663Z,63.35
2023-01-12T06:41:29.885Z,65.38
2023-01-12T06:43:58.458Z,71.25
2023-01-12T06:46:28.125Z,60.13
2023-01-12T06:48:57.850Z,68.35
2023-01-12T06:51:26.343Z,65.28
2023-01-12T06:53:55.062Z,67.35
2023-01-12T06:56:23.644Z,62.47
2023-01-12T06:58:52.133Z,63.63
2023-01-12T07:01:20.196Z,65.05
2023-01-12T07:03:48.534Z,64.25
2023-01-12T07:06:17.193Z,72.57
2023-01-12T07:08:45.720Z,58.67
2023-01-12T07:11:15.364Z,65.80
2023-01-12T07:13:43.743Z,70.03
2023-01-12T07:16:11.773Z,67.47
2023-01-12T07:18:40.259Z,67.00
2023-01-12T07:21:09.345Z,63.08
2023-01-12T07:23:42.593Z,62.08
2023-01-12T07:26:11.270Z,64.50
2023-01-12T07:28:40.028Z,64.93
2023-01-12T07:31:08.175Z,64.05
2023-01-12T07:33:38.325Z,66.85
2023-01-12T07:36:07.047Z,66.65
2023-01-12T07:38:35.411Z,58.08
2023-01-12T07:41:04.126Z,59.72
2023-01-12T07:43:33.913Z,67.00
2023-01-12T07:46:02.364Z,62.75
2023-01-12T07:48:30.967Z,61.22
2023-01-12T07:50:59.594Z,58.50
2023-01-12T07:53:28.305Z,61.40
2023-01-12T07:55:58.979Z,64.03
2023-01-12T07:58:28.039Z,65.18
2023-01-12T08:00:59.510Z,60.88
2023-01-12T08:03:28.289Z,61.80
2023-01-12T08:05:57.765Z,56.35
2023-01-12T08:08:26.375Z,63.50
2023-01-12T08:10:54.276Z,55.55
2023-01-12T08:13:25.834Z,58.08
2023-01-12T08:15:55.290Z,60.55
2023-01-12T08:18:27.475Z,61.03
2023-01-12T08:20:57.515Z,56.90
2023-01-12T08:23:33.232Z,54.15
2023-01-12T08:26:04.838Z,55.50
2023-01-12T08:28:38.941Z,51.33
2023-01-12T08:31:10.178Z,60.25
2023-01-12T08:33:39.062Z,51.13
2023-01-12T08:36:09.830Z,49.67
2023-01-12T08:38:38.503Z,53.80
2023-01-12T08:41:24.561Z,49.60
2023-01-12T08:44:11.475Z,52.17
2023-01-12T08:46:49.883Z,55.35
2023-01-12T08:49:21.394Z,52.47
2023-01-12T08:51:50.099Z,56.50
2023-01-12T08:54:19.904Z,48.00
2023-01-12T08:56:48.251Z,48.95
2023-01-12T08:59:17.031Z,46.60
2023-01-12T09:01:45.680Z,47.70
2023-01-12T09:04:14.140Z,48.08
2023-01-12T09:06:43.878Z,44.05
2023-01-12T09:09:15.746Z,45.47
2023-01-12T09:11:44.614Z,39.15
2023-01-12T09:14:14.563Z,91.40
2023-01-12T09:16:42.991Z,49.97
2023-01-12T09:19:11.651Z,36.30
2023-01-12T09:21:40.774Z,44.97
2023-01-12T09:24:09.283Z,38.50
2023-01-12T09:26:40.112Z,41.17
2023-01-12T09:29:09.399Z,36.92
2023-01-12T09:31:38.082Z,37.67
2023-01-12T09:34:06.789Z,35.28
2023-01-12T09:36:38.709Z,33.88
2023-01-12T09:39:15.388Z,29.45
2023-01-12T09:42:07.391Z,27.77
2023-01-12T09:45:05.893Z,27.80
2023-01-12T09:47:53.999Z,35.40
2023-01-12T09:50:26.434Z,31.58
2023-01-12T09:52:56.196Z,31.77
2023-01-12T09:55:26.727Z,31.85
2023-01-12T09:58:16.117Z,33.97
2023-01-12T10:00:44.655Z,28.08
2023-01-12T10:03:32.298Z,31.02
2023-01-12T10:06:03.780Z,31.33
2023-01-12T10:08:34.813Z,30.25
2023-01-12T10:11:30.681Z,30.65
2023-01-12T10:14:20.121Z,25.33
2023-01-12T10:16:54.311Z,23.55
2023-01-12T10:19:59.584Z,32.75
2023-01-12T10:22:41.775Z,25.02
2023-01-12T10:25:22.502Z,22.17
2023-01-12T10:27:53.943Z,26.27
2023-01-12T10:30:29.084Z,18.27
2023-01-12T10:32:58.086Z,17.13
2023-01-12T10:35:26.205Z,21.75
2023-01-12T10:37:56.591Z,20.63
2023-01-12T10:40:32.981Z,17.33
2023-01-12T10:43:32.221Z,16.67
2023-01-12T10:46:27.645Z,15.07
2023-01-12T10:49:19.485Z,15.18
2023-01-12T10:52:22.682Z,15.30
2023-01-12T10:54:50.927Z,13.93
2023-01-12T10:57:23.857Z,15.60
2023-01-12T10:59:55.517Z,13.32
2023-01-12T11:02:26.147Z,13.35
2023-01-12T11:04:54.914Z,10.02
2023-01-12T11:07:29.377Z,12.23
2023-01-12T11:10:19.293Z,12.77
2023-01-12T11:12:59.277Z,10.55
2023-01-12T11:15:28.957Z,16.50
2023-01-12T11:18:04.494Z,10.52
2023-01-12T11:21:09.455Z,11.27
2023-01-12T11:24:16.616Z,10.93
2023-01-12T11:26:51.081Z,9.13
2023-01-12T11:29:50.221Z,10.10
2023-01-12T11:32:38.901Z,9.30
2023-01-12T11:35:37.734Z,13.77
2023-01-12T11:38:14.408Z,10.60
2023-01-12T11:40:42.955Z,13.23
2023-01-12T11:43:32.386Z,13.82
2023-01-12T11:46:26.958Z,10.18
2023-01-12T11:49:20.258Z,15.05
2023-01-12T11:51:56.891Z,11.97
2023-01-12T11:54:26.801Z,21.88
2023-01-12T11:57:19.658Z,13.68
2023-01-12T11:59:57.613Z,17.60
2023-01-12T12:02:37.816Z,18.27
2023-01-12T12:05:37.270Z,20.08
2023-01-12T12:08:14.791Z,18.45
2023-01-12T12:10:49.063Z,20.10
2023-01-12T12:13:33.747Z,23.60
2023-01-12T12:16:19.927Z,15.43
2023-01-12T12:19:19.285Z,22.63
2023-01-12T12:22:16.526Z,24.70
2023-01-12T12:25:03.125Z,24.17
2023-01-12T12:27:38.288Z,21.80
2023-01-12T12:30:43.375Z,24.65
2023-01-12T12:33:32.660Z,21.27
2023-01-12T12:36:25.694Z,16.58
2023-01-12T12:39:29.471Z,21.45
2023-01-12T12:42:25.087Z,22.45
2023-01-12T12:45:19.391Z,18.33
2023-01-12T12:47:59.861Z,14.50
2023-01-12T12:50:31.721Z,17.90
2023-01-12T12:53:25.801Z,12.88
2023-01-12T12:55:55.218Z,18.15
2023-01-12T12:58:26.785Z,21.95
2023-01-12T13:00:57.347Z,16.08
2023-01-12T13:03:43.935Z,19.90
2023-01-12T13:06:31.204Z,16.27
2023-01-12T13:09:19.430Z,31.20
2023-01-12T13:11:57.927Z,16.20
2023-01-12T13:15:10.448Z,15.07
2023-01-12T13:17:44.065Z,16.58
2023-01-12T13:20:24.541Z,14.95
2023-01-12T13:22:53.588Z,18.25
2023-01-12T13:25:23.281Z,18.98
2023-01-12T13:28:00.718Z,25.25
2023-01-12T13:30:31.605Z,25.13
2023-01-12T13:33:19.973Z,26.77
2023-01-12T13:35:47.701Z,24.25
2023-01-12T13:38:44.312Z,68.80
2023-01-12T13:41:15.277Z,24.40
2023-01-12T13:44:02.563Z,13.18
2023-01-12T13:46:37.808Z,18.25
2023-01-12T13:49:35.988Z,19.38
2023-01-12T13:52:17.459Z,45.45
2023-01-12T13:57:25.323Z,23.00
2023-01-12T14:00:01.275Z,28.27
2023-01-12T14:02:31.551Z,20.85
2023-01-12T14:05:37.691Z,32.78
2023-01-12T14:08:34.382Z,23.65
2023-01-12T14:11:07.518Z,27.50
2023-01-12T14:14:23.186Z,34.45
2023-01-12T14:17:10.519Z,95.07
2023-01-12T14:19:41.061Z,56.30
2023-01-12T14:22:19.837Z,42.80
2023-01-12T14:24:47.768Z,23.08
2023-01-12T14:27:27.663Z,15.30
2023-01-12T14:29:56.294Z,53.80
2023-01-12T14:32:25.050Z,14.13
2023-01-12T14:34:54.620Z,13.63
2023-01-12T14:37:33.268Z,15.48
2023-01-12T14:40:01.244Z,15.85
2023-01-12T14:42:48.044Z,17.90
2023-01-12T14:45:44.443Z,15.98
2023-01-12T14:48:30.662Z,21.27
2023-01-12T14:51:18.901Z,13.18
2023-01-12T14:53:48.862Z,17.63
2023-01-12T14:56:21.232Z,18.10
2023-01-12T14:58:50.124Z,17.52
2023-01-12T15:01:35.158Z,15.77
2023-01-12T15:04:05.671Z,16.80
2023-01-12T15:06:43.219Z,23.52
2023-01-12T15:09:53.152Z,21.77
2023-01-12T15:12:40.039Z,21.65
2023-01-12T15:15:21.639Z,19.02
2023-01-12T15:18:09.713Z,21.02
2023-01-12T15:21:01.263Z,16.80
2023-01-12T15:23:55.218Z,13.07
2023-01-12T15:26:23.093Z,19.35
2023-01-12T15:28:51.651Z,15.73
2023-01-12T15:31:29.104Z,18.40
2023-01-12T15:33:57.566Z,18.73
2023-01-12T15:36:25.649Z,18.38
2023-01-12T15:38:53.963Z,20.98
2023-01-12T15:41:45.555Z,23.17
2023-01-12T15:44:18.370Z,15.00
2023-01-12T15:49:15.317Z,13.60
2023-01-12T15:51:47.746Z,17.73
2023-01-12T15:54:18.376Z,13.40
2023-01-12T15:56:48.130Z,13.32
2023-01-12T15:59:16.757Z,19.42
2023-01-12T16:01:50.010Z,15.18
2023-01-12T16:09:41.580Z,15.88
2023-01-12T16:12:11.064Z,20.42
2023-01-12T16:14:38.737Z,19.23
2023-01-12T16:17:06.923Z,19.77
2023-01-12T16:19:41.588Z,18.88
2023-01-12T16:22:16.327Z,19.83
2023-01-12T16:24:44.654Z,19.20
2023-01-12T16:27:12.862Z,18.88
2023-01-12T16:29:40.519Z,21.02
2023-01-12T16:32:09.208Z,22.85
2023-01-12T16:34:37.293Z,22.30
2023-01-12T16:37:05.927Z,20.63
2023-01-12T16:39:33.783Z,21.45
2023-01-12T16:42:05.262Z,32.80
2023-01-12T16:44:37.647Z,26.15
2023-01-12T16:47:18.232Z,21.73
2023-01-12T16:49:49.331Z,27.45
2023-01-12T16:52:19.959Z,20.50
2023-01-12T16:54:47.954Z,25.33
2023-01-12T16:57:17.816Z,28.00
2023-01-12T16:59:46.189Z,25.75
2023-01-12T17:02:16.046Z,26.70
2023-01-12T17:04:45.296Z,26.00
2023-01-12T17:07:13.235Z,24.42
2023-01-12T17:09:41.429Z,26.63
2023-01-12T17:12:09.887Z,23.08
2023-01-12T17:14:37.857Z,35.45
2023-01-12T17:17:08.683Z,35.95
2023-01-12T17:19:38.692Z,27.77
2023-01-12T17:22:08.178Z,27.73
2023-01-12T17:24:37.401Z,32.22
2023-01-12T17:27:06.158Z,28.25
2023-01-12T17:29:34.114Z,32.00
2023-01-12T17:32:06.752Z,34.45
2023-01-12T17:34:36.987Z,26.23
2023-01-12T17:37:08.607Z,33.15
2023-01-12T17:39:43.492Z,35.38
2023-01-12T17:42:35.818Z,30.00
2023-01-12T17:45:04.456Z,37.25
2023-01-12T17:47:33.182Z,32.25
2023-01-12T17:50:01.306Z,33.63
2023-01-12T17:52:29.708Z,42.42
2023-01-12T17:54:57.956Z,35.35
2023-01-12T17:57:26.650Z,34.47
2023-01-12T17:59:54.379Z,33.50
2023-01-12T18:02:22.969Z,35.88
2023-01-12T18:04:51.080Z,37.83
2023-01-12T18:07:19.221Z,34.17
2023-01-12T18:09:47.241Z,34.10
2023-01-12T18:12:16.640Z,31.10
2023-01-12T18:14:44.416Z,39.92
2023-01-12T18:17:13.002Z,39.75
2023-01-12T18:19:42.421Z,34.03
2023-01-12T18:22:11.140Z,32.05
2023-01-12T18:24:39.253Z,30.08
2023-01-12T18:27:08.172Z,34.10
2023-01-12T18:29:35.825Z,34.00
2023-01-12T18:32:04.303Z,34.47
2023-01-12T18:34:32.082Z,45.20
2023-01-12T18:37:00.755Z,37.60
2023-01-12T18:39:28.438Z,39.70
2023-01-12T18:42:15.070Z,38.53
2023-01-12T18:44:43.015Z,32.63
2023-01-12T18:47:33.266Z,35.63
2023-01-12T18:50:21.187Z,33.72
2023-01-12T18:53:08.164Z,35.03
2023-01-12T18:55:38.795Z,28.77
2023-01-12T18:58:07.155Z,36.72
2023-01-12T19:00:34.936Z,33.15
2023-01-12T19:03:04.577Z,34.05
2023-01-12T19:05:42.791Z,29.10
2023-01-12T19:08:37.132Z,26.88
2023-01-12T19:11:11.942Z,30.85
2023-01-12T19:13:59.240Z,29.20
2023-01-12T19:16:46.324Z,29.95
2023-01-12T19:19:14.801Z,31.98
2023-01-12T19:22:01.126Z,31.67
2023-01-12T19:24:48.008Z,24.02
2023-01-12T19:27:34.368Z,30.80
2023-01-12T19:30:02.812Z,28.73
2023-01-12T19:32:31.275Z,27.25
2023-01-12T19:35:10.368Z,26.55
2023-01-12T19:37:40.456Z,30.70
2023-01-12T19:40:27.995Z,28.33
2023-01-12T19:43:14.157Z,28.13
2023-01-12T19:45:46.572Z,33.65
2023-01-12T19:48:16.583Z,27.95
2023-01-12T19:50:45.296Z,33.17
2023-01-12T19:53:21.457Z,23.48
2023-01-12T19:55:52.898Z,24.00
2023-01-12T19:58:25.550Z,27.75
2023-01-12T20:03:25.611Z,25.83
2023-01-12T20:05:54.893Z,29.23
2023-01-12T20:08:25.138Z,25.88
2023-01-12T20:10:55.480Z,29.10
2023-01-12T20:13:23.674Z,30.85
2023-01-12T20:15:52.922Z,25.27
2023-01-12T20:18:21.063Z,23.77
2023-01-12T20:20:49.411Z,26.73
2023-01-12T20:23:17.999Z,28.65
2023-01-12T20:25:46.517Z,25.60
2023-01-12T20:28:15.831Z,29.98
2023-01-12T20:30:44.743Z,28.10
2023-01-12T20:33:12.631Z,21.70
2023-01-12T20:35:45.709Z,25.08
2023-01-12T20:40:46.316Z,22.77
2023-01-12T20:43:14.707Z,21.15
2023-01-12T20:45:44.621Z,22.08
2023-01-12T20:48:14.234Z,24.80
2023-01-12T20:50:44.835Z,20.70
2023-01-12T20:53:14.677Z,26.20
2023-01-12T20:55:44.395Z,19.67
2023-01-12T20:58:12.405Z,21.08
2023-01-12T21:00:41.152Z,22.17
2023-01-12T21:03:10.534Z,22.90
2023-01-12T21:05:43.670Z,29.15
2023-01-12T21:08:12.347Z,25.63
2023-01-12T21:10:49.641Z,22.08
2023-01-12T21:13:18.184Z,22.45
2023-01-12T21:15:46.495Z,21.50
2023-01-12T21:18:14.069Z,24.02
2023-01-12T21:20:44.122Z,26.48
2023-01-12T21:23:11.724Z,24.20
2023-01-12T21:25:44.393Z,24.08
2023-01-12T21:28:12.964Z,27.50
2023-01-12T21:30:41.657Z,22.30
2023-01-12T21:33:11.063Z,22.48
2023-01-12T21:35:39.121Z,24.73
2023-01-12T21:38:07.867Z,23.33
2023-01-12T21:40:37.370Z,29.02
2023-01-12T21:43:13.682Z,20.65
2023-01-12T21:45:43.726Z,20.98
2023-01-12T21:48:13.053Z,23.38
2023-01-12T21:50:41.236Z,22.88
2023-01-12T21:53:09.494Z,18.65
2023-01-12T21:55:37.331Z,26.17
2023-01-12T21:58:05.237Z,26.45
2023-01-12T22:00:33.329Z,20.10
2023-01-12T22:03:01.268Z,17.08
2023-01-12T22:05:29.632Z,20.45
2023-01-12T22:07:58.350Z,17.95
2023-01-12T22:10:31.096Z,21.60
2023-01-12T22:13:00.388Z,19.73
2023-01-12T22:15:29.999Z,20.20
2023-01-12T22:17:58.151Z,21.92
2023-01-12T22:20:28.247Z,20.98
2023-01-12T22:22:56.213Z,17.55
2023-01-12T22:25:24.009Z,17.42
2023-01-12T22:27:52.173Z,21.33
2023-01-12T22:30:22.230Z,21.60
2023-01-12T22:32:53.754Z,18.85
2023-01-12T22:35:22.568Z,19.40
2023-01-12T22:37:50.358Z,19.65
2023-01-12T22:40:18.684Z,17.25
2023-01-12T22:43:04.859Z,20.15
2023-01-12T22:45:34.739Z,20.75
2023-01-12T22:48:04.662Z,15.25
2023-01-12T22:50:33.291Z,17.10
2023-01-12T22:53:01.098Z,22.48
2023-01-12T22:55:29.347Z,15.68
2023-01-12T22:57:57.126Z,19.33
2023-01-12T23:00:25.514Z,17.05
2023-01-12T23:03:05.655Z,21.50
2023-01-12T23:05:36.596Z,15.05
2023-01-12T23:08:06.131Z,19.50
2023-01-12T23:10:34.666Z,17.58
2023-01-12T23:13:21.825Z,21.10
2023-01-12T23:15:53.707Z,18.27
2023-01-12T23:18:27.500Z,22.63
2023-01-12T23:21:02.081Z,19.50
2023-01-12T23:23:31.100Z,17.42
2023-01-12T23:26:03.729Z,16.58
2023-01-12T23:28:36.873Z,16.35
2023-01-12T23:31:11.667Z,17.25
2023-01-12T23:33:39.836Z,23.73
2023-01-12T23:36:11.078Z,25.17
2023-01-12T23:38:38.808Z,19.70
2023-01-12T23:41:27.102Z,19.45
2023-01-12T23:43:57.163Z,22.58
2023-01-12T23:46:25.848Z,18.13
2023-01-12T23:48:56.766Z,15.70
2023-01-12T23:51:27.110Z,14.63
2023-01-12T23:53:59.681Z,17.60
2023-01-12T23:56:30.144Z,19.17
2023-01-12T23:58:58.243Z,18.92
